Flight Track Log - Related Links

Times and Time Zones

All times are in EST time to prevent confusion due to time zone crossing. See the AFL150 flight status page for this flight to view local times or setup timezone preferences in your user account.

Time Position Orientation Groundspeed Altitude Reporting Facility
EST Latitude Longitude Course Direction KTS MPH feet Rate Location/Type
Mon 04:47:00 AM 56.1776 36.7776 307° West  Level Estimated
Mon 04:48:00 AM 56.2490 36.6023 306° West  Level Estimated
Mon 04:49:00 AM 56.3201 36.4265 306° West  Level Estimated
Mon 04:50:00 AM 56.3910 36.2499 306° West  Level Estimated
Mon 04:51:00 AM 56.4616 36.0727 306° West  Level Estimated
Mon 04:52:00 AM 56.5320 35.8949 306° West  Level Estimated
Mon 04:53:00 AM 56.6021 35.7163 306° West  Level Estimated
Mon 04:54:00 AM 56.6720 35.5372 305° West  Level Estimated
Mon 04:55:00 AM 56.7416 35.3573 305° West  Level Estimated
Mon 04:56:00 AM 56.8110 35.1768 305° West  Level Estimated
Mon 04:57:00 AM 56.8801 34.9956 305° West  Level Estimated
Mon 04:58:00 AM 56.9489 34.8138 305° West  Level Estimated
Mon 04:59:00 AM 57.0175 34.6312 305° West  Level Estimated
Mon 05:00:00 AM 57.0858 34.4481 305° West  Level Estimated
Mon 05:01:00 AM 57.1538 34.2642 304° West  Level Estimated
Mon 05:02:00 AM 57.2216 34.0796 304° West  Level Estimated
Mon 05:03:00 AM 57.2891 33.8944 304° West  Level Estimated
Mon 05:04:00 AM 57.3563 33.7085 304° West  Level Estimated
Mon 05:05:00 AM 57.4232 33.5219 304° West  Level Estimated
Mon 05:06:00 AM 57.4899 33.3347 304° West  Level Estimated
Mon 05:07:00 AM 57.5563 33.1467 303° West  Level Estimated
Mon 05:08:00 AM 57.6224 32.9581 303° West  Level Estimated
Mon 05:09:00 AM 57.6882 32.7688 303° West  Level Estimated
Mon 05:10:00 AM 57.7537 32.5788 303° West  Level Estimated
Mon 05:11:00 AM 57.8190 32.3881 303° West  Level Estimated
Mon 05:12:00 AM 57.8839 32.1967 303° West  Level Estimated
Mon 05:13:00 AM 57.9486 32.0046 302° West  Level Estimated
Mon 05:14:00 AM 58.0130 31.8118 302° West  Level Estimated
Mon 05:15:00 AM 58.0771 31.6184 302° West  Level Estimated
Mon 05:16:00 AM 58.1409 31.4242 302° West  Level Estimated
Mon 05:17:00 AM 58.2044 31.2293 302° West  Level Estimated
Mon 05:18:00 AM 58.2676 31.0338 302° West  Level Estimated
Mon 05:19:00 AM 58.3306 30.8375 301° West  Level Estimated
Mon 05:20:00 AM 58.3932 30.6406 301° West  Level Estimated
Mon 05:21:00 AM 58.4555 30.4430 301° West  Level Estimated
Mon 05:22:00 AM 58.5175 30.2446 301° West  Level Estimated
Mon 05:23:00 AM 58.5792 30.0456 301° West  Level Estimated
Mon 05:24:00 AM 58.6405 29.8458 301° West  Level Estimated
Mon 05:25:00 AM 58.7016 29.6454 300° West  Level Estimated
Mon 05:26:00 AM 58.7624 29.4442 300° West  Level Estimated
Mon 05:27:00 AM 58.8228 29.2424 300° West  Level Estimated
Mon 05:28:00 AM 58.8829 29.0398 300° West  Level Estimated
Mon 05:29:00 AM 58.9427 28.8366 300° West  Level Estimated
Mon 05:30:00 AM 59.0022 28.6326 300° West  Level Estimated
Mon 05:31:00 AM 59.0614 28.4279 299° West  Level Estimated
Mon 05:32:00 AM 59.1203 28.2226 299° West  Level Estimated
Mon 05:33:00 AM 59.1788 28.0165 299° West  Level Estimated
Mon 05:34:00 AM 59.2370 27.8097 299° West  Level Estimated
Mon 05:35:00 AM 59.2948 27.6022 299° West  Level Estimated
Mon 05:36:00 AM 59.3524 27.3940 299° West  Level Estimated
Mon 05:37:00 AM 59.4096 27.1851 298° West  Level Estimated
Mon 05:38:00 AM 59.4664 26.9755 298° West  Level Estimated
Mon 05:39:00 AM 59.5230 26.7652 298° West  Level Estimated
Mon 05:40:00 AM 59.5792 26.5542 298° West  Level Estimated
Mon 05:41:00 AM 59.6350 26.3425 298° West  Level Estimated
Mon 05:42:00 AM 59.6905 26.1301 297° West  Level Estimated
Mon 05:43:00 AM 59.7457 25.9170 297° West  Level Estimated
Mon 05:44:00 AM 59.8005 25.7031 297° West  Level Estimated
Mon 05:45:00 AM 59.8550 25.4886 297° West  Level Estimated
Mon 05:46:00 AM 59.9091 25.2734 297° West  Level Estimated
Mon 05:47:00 AM 59.9628 25.0574 297° West  Level Estimated
Mon 05:48:00 AM 60.0163 24.8408 296° West  Level Estimated
Mon 05:49:00 AM 60.0693 24.6235 296° West  Level Estimated
Mon 05:50:00 AM 60.1220 24.4055 296° West  Level Estimated
Mon 05:51:00 AM 60.1744 24.1868 296° West  Level Estimated
Mon 05:52:00 AM 60.2263 23.9673 296° West  Level Estimated
Mon 05:53:00 AM 60.2780 23.7472 295° West  Level Estimated
Mon 05:54:00 AM 60.3292 23.5264 295° West  Level Estimated
Mon 05:55:00 AM 60.3801 23.3049 295° West  Level Estimated
Mon 05:56:00 AM 60.4306 23.0828 295° West  Level Estimated
Mon 05:57:00 AM 60.4808 22.8599 295° West  Level Estimated
Mon 05:58:00 AM 60.5305 22.6363 294° West  Level Estimated
Mon 05:59:00 AM 60.5799 22.4121 294° West  Level Estimated
Mon 06:00:00 AM 60.6289 22.1871 294° West  Level Estimated
Mon 06:01:00 AM 60.6776 21.9615 294° West  Level Estimated
Mon 06:02:00 AM 60.7258 21.7352 294° West  Level Estimated
Mon 06:03:00 AM 60.7737 21.5083 293° West  Level Estimated
Mon 06:04:00 AM 60.8212 21.2806 293° West  Level Estimated
Mon 06:05:00 AM 60.8683 21.0523 293° West  Level Estimated
Mon 06:06:00 AM 60.9150 20.8233 293° West  Level Estimated
Mon 06:07:00 AM 60.9614 20.5936 293° West  Level Estimated
Mon 06:08:00 AM 61.0073 20.3633 292° West  Level Estimated
Mon 06:09:00 AM 61.0528 20.1323 292° West  Level Estimated
Mon 06:10:00 AM 61.0980 19.9007 292° West  Level Estimated
Mon 06:11:00 AM 61.1427 19.6683 292° West  Level Estimated
Mon 06:12:00 AM 61.1871 19.4354 292° West  Level Estimated
Mon 06:13:00 AM 61.2310 19.2017 291° West  Level Estimated
Mon 06:14:00 AM 61.2746 18.9674 291° West  Level Estimated
Mon 06:15:00 AM 61.3177 18.7325 291° West  Level Estimated
Mon 06:16:00 AM 61.3605 18.4970 291° West  Level Estimated
Mon 06:17:00 AM 61.4028 18.2607 291° West  Level Estimated
Mon 06:18:00 AM 61.4447 18.0239 290° West  Level Estimated
Mon 06:19:00 AM 61.4862 17.7864 290° West  Level Estimated
Mon 06:20:00 AM 61.5273 17.5483 290° West  Level Estimated
Mon 06:21:00 AM 61.5680 17.3095 290° West  Level Estimated
Mon 06:22:00 AM 61.6083 17.0702 290° West  Level Estimated
Mon 06:23:00 AM 61.6481 16.8302 289° West  Level Estimated
Mon 06:24:00 AM 61.6875 16.5896 289° West  Level Estimated
Mon 06:25:00 AM 61.7265 16.3484 289° West  Level Estimated
Mon 06:26:00 AM 61.7651 16.1066 289° West  Level Estimated
Mon 06:27:00 AM 61.8032 15.8641 289° West  Level Estimated
Mon 06:28:00 AM 61.8410 15.6211 288° West  Level Estimated
Mon 06:29:00 AM 61.8782 15.3775 288° West  Level Estimated
Mon 06:30:00 AM 61.9151 15.1333 288° West  Level Estimated
Mon 06:31:00 AM 61.9515 14.8885 288° West  Level Estimated
Mon 06:32:00 AM 61.9875 14.6431 287° West  Level Estimated
Mon 06:33:00 AM 62.0230 14.3971 287° West  Level Estimated
Mon 06:34:00 AM 62.0582 14.1506 287° West  Level Estimated
Mon 06:35:00 AM 62.0928 13.9035 287° West  Level Estimated
Mon 06:36:00 AM 62.1271 13.6559 287° West  Level Estimated
Mon 06:37:00 AM 62.1608 13.4076 286° West  Level Estimated
Mon 06:38:00 AM 62.1942 13.1589 286° West  Level Estimated
Mon 06:39:00 AM 62.2271 12.9096 286° West  Level Estimated
Mon 06:40:00 AM 62.2595 12.6597 286° West  Level Estimated
Mon 06:41:00 AM 62.2915 12.4093 285° West  Level Estimated
Mon 06:42:00 AM 62.3231 12.1584 285° West  Level Estimated
Mon 06:43:00 AM 62.3541 11.9070 285° West  Level Estimated
Mon 06:44:00 AM 62.3848 11.6550 285° West  Level Estimated
Mon 06:45:00 AM 62.4150 11.4026 285° West  Level Estimated
Mon 06:46:00 AM 62.4447 11.1496 284° West  Level Estimated
Mon 06:47:00 AM 62.4739 10.8961 284° West  Level Estimated
Mon 06:48:00 AM 62.5027 10.6422 284° West  Level Estimated
Mon 06:49:00 AM 62.5311 10.3877 284° West  Level Estimated
Mon 06:50:00 AM 62.5590 10.1328 283° West  Level Estimated
Mon 06:51:00 AM 62.5864 9.8774 283° West  Level Estimated
Mon 06:52:00 AM 62.6133 9.6215 283° West  Level Estimated
Mon 06:53:00 AM 62.6398 9.3652 283° West  Level Estimated
Mon 06:54:00 AM 62.6658 9.1084 283° West  Level Estimated
Mon 06:55:00 AM 62.6913 8.8511 282° West  Level Estimated
Mon 06:56:00 AM 62.7164 8.5934 282° West  Level Estimated
Mon 06:57:00 AM 62.7410 8.3353 282° West  Level Estimated
Mon 06:58:00 AM 62.7651 8.0768 282° West  Level Estimated
Mon 06:59:00 AM 62.7888 7.8178 281° West  Level Estimated
Mon 07:00:00 AM 62.8120 7.5585 281° West  Level Estimated
Mon 07:01:00 AM 62.8346 7.2987 281° West  Level Estimated
Mon 07:02:00 AM 62.8569 7.0385 281° West  Level Estimated
Mon 07:03:00 AM 62.8786 6.7780 280° West  Level Estimated
Mon 07:04:00 AM 62.8998 6.5170 280° West  Level Estimated
Mon 07:05:00 AM 62.9206 6.2557 280° West  Level Estimated
Mon 07:06:00 AM 62.9409 5.9940 280° West  Level Estimated
Mon 07:07:00 AM 62.9607 5.7320 280° West  Level Estimated
Mon 07:08:00 AM 62.9800 5.4696 279° West  Level Estimated
Mon 07:09:00 AM 62.9988 5.2069 279° West  Level Estimated
Mon 07:10:00 AM 63.0172 4.9438 279° West  Level Estimated
Mon 07:11:00 AM 63.0350 4.6804 279° West  Level Estimated
Mon 07:12:00 AM 63.0524 4.4167 278° West  Level Estimated
Mon 07:13:00 AM 63.0692 4.1527 278° West  Level Estimated
Mon 07:14:00 AM 63.0856 3.8883 278° West  Level Estimated
Mon 07:15:00 AM 63.1015 3.6237 278° West  Level Estimated
Mon 07:16:00 AM 63.1169 3.3588 277° West  Level Estimated
Mon 07:17:00 AM 63.1318 3.0936 277° West  Level Estimated
Mon 07:18:00 AM 63.1462 2.8282 277° West  Level Estimated
Mon 07:19:00 AM 63.1601 2.5625 277° West  Level Estimated
Mon 07:20:00 AM 63.1735 2.2965 276° West  Level Estimated
Mon 07:21:00 AM 63.1864 2.0303 276° West  Level Estimated
Mon 07:22:00 AM 63.1988 1.7639 276° West  Level Estimated
Mon 07:23:00 AM 63.2107 1.4972 276° West  Level Estimated
Mon 07:24:00 AM 63.2221 1.2304 276° West  Level Estimated
Mon 07:25:00 AM 63.2331 0.9633 275° West  Level Estimated
Mon 07:26:00 AM 63.2435 0.6960 275° West  Level Estimated
Mon 07:27:00 AM 63.2534 0.4286 275° West  Level Estimated
Mon 07:28:00 AM 63.2628 0.1609 275° West  Level Estimated
Mon 07:29:00 AM 63.2717 -0.1069 274° West  Level Estimated
Mon 07:30:00 AM 63.2801 -0.3749 274° West  Level Estimated
Mon 07:31:00 AM 63.2880 -0.6430 274° West  Level Estimated
Mon 07:32:00 AM 63.2954 -0.9113 274° West  Level Estimated
Mon 07:33:00 AM 63.3023 -1.1797 273° West  Level Estimated
Mon 07:34:00 AM 63.3087 -1.4482 273° West  Level Estimated
Mon 07:35:00 AM 63.3145 -1.7168 273° West  Level Estimated
Mon 07:36:00 AM 63.3199 -1.9856 273° West  Level Estimated
Mon 07:37:00 AM 63.3248 -2.2544 272° West  Level Estimated
Mon 07:38:00 AM 63.3291 -2.5233 272° West  Level Estimated
Mon 07:39:00 AM 63.3330 -2.7923 272° West  Level Estimated
Mon 07:40:00 AM 63.3363 -3.0614 272° West  Level Estimated
Mon 07:41:00 AM 63.3392 -3.3305 271° West  Level Estimated
Mon 07:42:00 AM 63.3415 -3.5997 271° West  Level Estimated
Mon 07:43:00 AM 63.3434 -3.8689 271° West  Level Estimated
Mon 07:44:00 AM 63.3447 -4.1381 271° West  Level Estimated
Mon 07:45:00 AM 63.3455 -4.4074 271° West  Level Estimated
Mon 07:46:00 AM 63.3458 -4.6767 270° West  Level Estimated
Mon 07:47:00 AM 63.3456 -4.9459 270° West  Level Estimated
Mon 07:48:00 AM 63.3449 -5.2152 270° West  Level Estimated
Mon 07:49:00 AM 63.3437 -5.4845 270° West  Level Estimated
Mon 07:50:00 AM 63.3419 -5.7537 269° West  Level Estimated
Mon 07:51:00 AM 63.3397 -6.0229 269° West  Level Estimated
Mon 07:52:00 AM 63.3370 -6.2920 269° West  Level Estimated
Mon 07:53:00 AM 63.3337 -6.5611 269° West  Level Estimated
Mon 07:54:00 AM 63.3300 -6.8301 268° West  Level Estimated
Mon 07:55:00 AM 63.3257 -7.0990 268° West  Level Estimated
Mon 07:56:00 AM 63.3210 -7.3679 268° West  Level Estimated
Mon 07:57:00 AM 63.3157 -7.6367 268° West  Level Estimated
Mon 07:58:00 AM 63.3099 -7.9053 267° West  Level Estimated
Mon 07:59:00 AM 63.3036 -8.1739 267° West  Level Estimated
Mon 08:00:00 AM 63.2968 -8.4423 267° West  Level Estimated
Mon 08:01:00 AM 63.2896 -8.7106 267° West  Level Estimated
Mon 08:02:00 AM 63.2818 -8.9787 266° West  Level Estimated
Mon 08:03:00 AM 63.2735 -9.2467 266° West  Level Estimated
Mon 08:04:00 AM 63.2647 -9.5146 266° West  Level Estimated
Mon 08:05:00 AM 63.2554 -9.7822 266° West  Level Estimated
Mon 08:06:00 AM 63.2456 -10.0497 265° West  Level Estimated
Mon 08:07:00 AM 63.2352 -10.3170 265° West  Level Estimated
Mon 08:08:00 AM 63.2244 -10.5842 265° West  Level Estimated
Mon 08:09:00 AM 63.2131 -10.8511 265° West  Level Estimated
Mon 08:10:00 AM 63.2013 -11.1178 265° West  Level Estimated
Mon 08:11:00 AM 63.1890 -11.3843 264° West  Level Estimated
Mon 08:12:00 AM 63.1762 -11.6505 264° West  Level Estimated
Mon 08:13:00 AM 63.1629 -11.9165 264° West  Level Estimated
Mon 08:14:00 AM 63.1491 -12.1823 264° West  Level Estimated
Mon 08:15:00 AM 63.1348 -12.4478 263° West  Level Estimated
Mon 08:16:00 AM 63.1200 -12.7130 263° West  Level Estimated
Mon 08:17:00 AM 63.1047 -12.9780 263° West  Level Estimated
Mon 08:18:00 AM 63.0889 -13.2427 263° West  Level Estimated
Mon 08:19:00 AM 63.0727 -13.5070 262° West  Level Estimated
Mon 08:20:00 AM 63.0559 -13.7711 262° West  Level Estimated
Mon 08:21:00 AM 63.0386 -14.0349 262° West  Level Estimated
Mon 08:22:00 AM 63.0209 -14.2984 262° West  Level Estimated
Mon 08:23:00 AM 63.0026 -14.5615 261° West  Level Estimated
Mon 08:24:00 AM 62.9839 -14.8243 261° West  Level Estimated
Mon 08:25:00 AM 62.9647 -15.0868 261° West  Level Estimated
Mon 08:26:00 AM 62.9450 -15.3489 261° West  Level Estimated
Mon 08:27:00 AM 62.9248 -15.6107 260° West  Level Estimated
Mon 08:28:00 AM 62.9041 -15.8720 260° West  Level Estimated
Mon 08:29:00 AM 62.8830 -16.1331 260° West  Level Estimated
Mon 08:30:00 AM 62.8614 -16.3937 260° West  Level Estimated
Mon 08:31:00 AM 62.8393 -16.6539 260° West  Level Estimated
Mon 08:32:00 AM 62.8167 -16.9138 259° West  Level Estimated
Mon 08:33:00 AM 62.7936 -17.1733 259° West  Level Estimated
Mon 08:34:00 AM 62.7701 -17.4323 259° West  Level Estimated
Mon 08:35:00 AM 62.7460 -17.6909 259° West  Level Estimated
Mon 08:36:00 AM 62.7215 -17.9491 258° West  Level Estimated
Mon 08:37:00 AM 62.6966 -18.2069 258° West  Level Estimated
Mon 08:38:00 AM 62.6711 -18.4642 258° West  Level Estimated
Mon 08:39:00 AM 62.6452 -18.7211 258° West  Level Estimated
Mon 08:40:00 AM 62.6188 -18.9775 257° West  Level Estimated
Mon 08:41:00 AM 62.5920 -19.2335 257° West  Level Estimated
Mon 08:42:00 AM 62.5647 -19.4890 257° West  Level Estimated
Mon 08:43:00 AM 62.5369 -19.7440 257° West  Level Estimated
Mon 08:44:00 AM 62.5086 -19.9986 257° West  Level Estimated
Mon 08:45:00 AM 62.4799 -20.2526 256° West  Level Estimated
Mon 08:46:00 AM 62.4507 -20.5062 256° West  Level Estimated
Mon 08:47:00 AM 62.4211 -20.7593 256° West  Level Estimated
Mon 08:48:00 AM 62.3910 -21.0119 256° West  Level Estimated
Mon 08:49:00 AM 62.3605 -21.2639 255° West  Level Estimated
Mon 08:50:00 AM 62.3295 -21.5155 255° West  Level Estimated
Mon 08:51:00 AM 62.2980 -21.7665 255° West  Level Estimated
Mon 08:52:00 AM 62.2661 -22.0170 255° West  Level Estimated
Mon 08:53:00 AM 62.2338 -22.2669 255° West  Level Estimated
Mon 08:54:00 AM 62.2010 -22.5164 254° West  Level Estimated
Mon 08:55:00 AM 62.1677 -22.7652 254° West  Level Estimated
Mon 08:56:00 AM 62.1340 -23.0136 254° West  Level Estimated
Mon 08:57:00 AM 62.0999 -23.2613 254° West  Level Estimated
Mon 08:58:00 AM 62.0653 -23.5086 253° West  Level Estimated
Mon 08:59:00 AM 62.0303 -23.7552 253° West  Level Estimated
Mon 09:00:00 AM 61.9949 -24.0013 253° West  Level Estimated
Mon 09:01:00 AM 61.9590 -24.2468 253° West  Level Estimated
Mon 09:02:00 AM 61.9226 -24.4917 253° West  Level Estimated
Mon 09:03:00 AM 61.8859 -24.7360 252° West  Level Estimated
Mon 09:04:00 AM 61.8487 -24.9797 252° West  Level Estimated
Mon 09:05:00 AM 61.8110 -25.2229 252° West  Level Estimated
Mon 09:06:00 AM 61.7730 -25.4655 252° West  Level Estimated
Mon 09:07:00 AM 61.7345 -25.7074 252° West  Level Estimated
Mon 09:08:00 AM 61.6956 -25.9487 251° West  Level Estimated
Mon 09:09:00 AM 61.6562 -26.1895 251° West  Level Estimated
Mon 09:10:00 AM 61.6165 -26.4296 251° West  Level Estimated
Mon 09:11:00 AM 61.5763 -26.6691 251° West  Level Estimated
Mon 09:12:00 AM 61.5357 -26.9079 250° West  Level Estimated
Mon 09:13:00 AM 61.4947 -27.1462 250° West  Level Estimated
Mon 09:14:00 AM 61.4533 -27.3838 250° West  Level Estimated
Mon 09:15:00 AM 61.4115 -27.6208 250° West  Level Estimated
Mon 09:16:00 AM 61.3692 -27.8571 250° West  Level Estimated
Mon 09:17:00 AM 61.3266 -28.0928 249° West  Level Estimated
Mon 09:18:00 AM 61.2835 -28.3279 249° West  Level Estimated
Mon 09:19:00 AM 61.2401 -28.5623 249° West  Level Estimated
Mon 09:20:00 AM 61.1962 -28.7961 249° West  Level Estimated
Mon 09:21:00 AM 61.1519 -29.0292 249° West  Level Estimated
Mon 09:22:00 AM 61.1073 -29.2616 248° West  Level Estimated
Mon 09:23:00 AM 61.0622 -29.4934 248° West  Level Estimated
Mon 09:24:00 AM 61.0167 -29.7245 248° West  Level Estimated
Mon 09:25:00 AM 60.9709 -29.9550 248° West  Level Estimated
Mon 09:26:00 AM 60.9246 -30.1848 248° West  Level Estimated
Mon 09:27:00 AM 60.8780 -30.4139 247° West  Level Estimated
Mon 09:28:00 AM 60.8310 -30.6424 247° West  Level Estimated
Mon 09:29:00 AM 60.7835 -30.8702 247° West  Level Estimated
Mon 09:30:00 AM 60.7357 -31.0973 247° West  Level Estimated
Mon 09:31:00 AM 60.6876 -31.3237 247° West  Level Estimated
Mon 09:32:00 AM 60.6390 -31.5495 246° West  Level Estimated
Mon 09:33:00 AM 60.5901 -31.7745 246° West  Level Estimated
Mon 09:34:00 AM 60.5407 -31.9989 246° West  Level Estimated
Mon 09:35:00 AM 60.4911 -32.2226 246° West  Level Estimated
Mon 09:36:00 AM 60.4410 -32.4457 246° West  Level Estimated
Mon 09:37:00 AM 60.3905 -32.6680 245° Southwest  Level Estimated
Mon 09:38:00 AM 60.3397 -32.8896 245° Southwest  Level Estimated
Mon 09:39:00 AM 60.2886 -33.1106 245° Southwest  Level Estimated
Mon 09:40:00 AM 60.2370 -33.3308 245° Southwest  Level Estimated
Mon 09:41:00 AM 60.1851 -33.5504 245° Southwest  Level Estimated
Mon 09:42:00 AM 60.1328 -33.7692 244° Southwest  Level Estimated
Mon 09:43:00 AM 60.0802 -33.9874 244° Southwest  Level Estimated
Mon 09:44:00 AM 60.0272 -34.2049 244° Southwest  Level Estimated
Mon 09:45:00 AM 59.9739 -34.4217 244° Southwest  Level Estimated
Mon 09:46:00 AM 59.9202 -34.6377 244° Southwest  Level Estimated
Mon 09:47:00 AM 59.8661 -34.8531 244° Southwest  Level Estimated
Mon 09:48:00 AM 59.8117 -35.0678 243° Southwest  Level Estimated
Mon 09:49:00 AM 59.7570 -35.2817 243° Southwest  Level Estimated
Mon 09:50:00 AM 59.7019 -35.4950 243° Southwest  Level Estimated
Mon 09:51:00 AM 59.6465 -35.7076 243° Southwest  Level Estimated
Mon 09:52:00 AM 59.5907 -35.9194 243° Southwest  Level Estimated
Mon 09:53:00 AM 59.5345 -36.1306 242° Southwest  Level Estimated
Mon 09:54:00 AM 59.4781 -36.3410 242° Southwest  Level Estimated
Mon 09:55:00 AM 59.4213 -36.5508 242° Southwest  Level Estimated
Mon 09:56:00 AM 59.3642 -36.7598 242° Southwest  Level Estimated
Mon 09:57:00 AM 59.3067 -36.9682 242° Southwest  Level Estimated
Mon 09:58:00 AM 59.2489 -37.1758 242° Southwest  Level Estimated
Mon 09:59:00 AM 59.1908 -37.3827 241° Southwest  Level Estimated
Mon 10:00:00 AM 59.1323 -37.5889 241° Southwest  Level Estimated
Mon 10:01:00 AM 59.0735 -37.7944 241° Southwest  Level Estimated
Mon 10:02:00 AM 59.0144 -37.9993 241° Southwest  Level Estimated
Mon 10:03:00 AM 58.9550 -38.2034 241° Southwest  Level Estimated
Mon 10:04:00 AM 58.8952 -38.4068 240° Southwest  Level Estimated
Mon 10:05:00 AM 58.8352 -38.6095 240° Southwest  Level Estimated
Mon 10:06:00 AM 58.7748 -38.8115 240° Southwest  Level Estimated
Mon 10:07:00 AM 58.7141 -39.0128 240° Southwest  Level Estimated
Mon 10:08:00 AM 58.6531 -39.2133 240° Southwest  Level Estimated
Mon 10:09:00 AM 58.5918 -39.4132 240° Southwest  Level Estimated
Mon 10:10:00 AM 58.5302 -39.6124 239° Southwest  Level Estimated
Mon 10:11:00 AM 58.4682 -39.8109 239° Southwest  Level Estimated
Mon 10:12:00 AM 58.4060 -40.0087 239° Southwest  Level Estimated
Mon 10:13:00 AM 58.3434 -40.2058 239° Southwest  Level Estimated
Mon 10:14:00 AM 58.2806 -40.4022 239° Southwest  Level Estimated
Mon 10:15:00 AM 58.2174 -40.5979 239° Southwest  Level Estimated
Mon 10:16:00 AM 58.1540 -40.7929 238° Southwest  Level Estimated
Mon 10:17:00 AM 58.0903 -40.9872 238° Southwest  Level Estimated
Mon 10:18:00 AM 58.0262 -41.1808 238° Southwest  Level Estimated
Mon 10:19:00 AM 57.9619 -41.3737 238° Southwest  Level Estimated
Mon 10:20:00 AM 57.8973 -41.5659 238° Southwest  Level Estimated
Mon 10:21:00 AM 57.8324 -41.7575 238° Southwest  Level Estimated
Mon 10:22:00 AM 57.7672 -41.9483 237° Southwest  Level Estimated
Mon 10:23:00 AM 57.7017 -42.1384 237° Southwest  Level Estimated
Mon 10:24:00 AM 57.6359 -42.3279 237° Southwest  Level Estimated
Mon 10:25:00 AM 57.5699 -42.5167 237° Southwest  Level Estimated
Mon 10:26:00 AM 57.5036 -42.7048 237° Southwest  Level Estimated
Mon 10:27:00 AM 57.4369 -42.8922 237° Southwest  Level Estimated
Mon 10:28:00 AM 57.3701 -43.0789 236° Southwest  Level Estimated
Mon 10:29:00 AM 57.3029 -43.2649 236° Southwest  Level Estimated
Mon 10:30:00 AM 57.2355 -43.4503 236° Southwest  Level Estimated
Mon 10:31:00 AM 57.1678 -43.6350 236° Southwest  Level Estimated
Mon 10:32:00 AM 57.0998 -43.8190 236° Southwest  Level Estimated
Mon 10:33:00 AM 57.0316 -44.0023 236° Southwest  Level Estimated
Mon 10:34:00 AM 56.9631 -44.1850 236° Southwest  Level Estimated
Mon 10:35:00 AM 56.8943 -44.3670 235° Southwest  Level Estimated
Mon 10:36:00 AM 56.8252 -44.5483 235° Southwest  Level Estimated
Mon 10:37:00 AM 56.7559 -44.7290 235° Southwest  Level Estimated
Mon 10:38:00 AM 56.6864 -44.9089 235° Southwest  Level Estimated
Mon 10:39:00 AM 56.6166 -45.0882 235° Southwest  Level Estimated
Mon 10:40:00 AM 56.5465 -45.2669 235° Southwest  Level Estimated
Mon 10:41:00 AM 56.4761 -45.4449 234° Southwest  Level Estimated
Mon 10:42:00 AM 56.4055 -45.6222 234° Southwest  Level Estimated
Mon 10:43:00 AM 56.3347 -45.7989 234° Southwest  Level Estimated
Mon 10:44:00 AM 56.2636 -45.9749 234° Southwest  Level Estimated
Mon 10:45:00 AM 56.1923 -46.1503 234° Southwest  Level Estimated
Mon 10:46:00 AM 56.1207 -46.3250 234° Southwest  Level Estimated
Mon 10:47:00 AM 56.0489 -46.4991 234° Southwest  Level Estimated
Mon 10:48:00 AM 55.9768 -46.6725 233° Southwest  Level Estimated
Mon 10:49:00 AM 55.9045 -46.8453 233° Southwest  Level Estimated
Mon 10:50:00 AM 55.8319 -47.0174 233° Southwest  Level Estimated
Mon 10:51:00 AM 55.7591 -47.1889 233° Southwest  Level Estimated
Mon 10:52:00 AM 55.6861 -47.3597 233° Southwest  Level Estimated
Mon 10:53:00 AM 55.6128 -47.5299 233° Southwest  Level Estimated
Mon 10:54:00 AM 55.5393 -47.6995 233° Southwest  Level Estimated
Mon 10:55:00 AM 55.4656 -47.8684 232° Southwest  Level Estimated
Mon 10:56:00 AM 55.3916 -48.0367 232° Southwest  Level Estimated
Mon 10:57:00 AM 55.3174 -48.2044 232° Southwest  Level Estimated
Mon 10:58:00 AM 55.2430 -48.3715 232° Southwest  Level Estimated
Mon 10:59:00 AM 55.1683 -48.5379 232° Southwest  Level Estimated
Mon 11:00:00 AM 55.0934 -48.7037 232° Southwest  Level Estimated
Mon 11:01:00 AM 55.0183 -48.8689 232° Southwest  Level Estimated
Mon 11:02:00 AM 54.9430 -49.0334 231° Southwest  Level Estimated
Mon 11:03:00 AM 54.8674 -49.1974 231° Southwest  Level Estimated
Mon 11:04:00 AM 54.7917 -49.3607 231° Southwest  Level Estimated
Mon 11:05:00 AM 54.7157 -49.5234 231° Southwest  Level Estimated
Mon 11:06:00 AM 54.6395 -49.6855 231° Southwest  Level Estimated
Mon 11:06:15 AM 62.0000 -50.0000 236° Southwest 431 496 35,000  Level ETMS Enhanced Traffic Management System
Mon 11:24:26 AM 59.2000 -57.3833 228° Southwest 440 506 35,000  Level Gander Center
Mon 11:25:00 AM 59.1386 -57.5260 229° Southwest 431 496 35,000  Level FlightAware Transoceanic
Mon 11:25:26 AM 59.1000 -57.5500 221° Southwest 440 506 35,000  Level Gander Center
Mon 11:26:00 AM 59.0600 -57.7019 229° Southwest 431 496 35,000  Level FlightAware Transoceanic
Mon 11:26:26 AM 59.0333 -57.7500 237° Southwest 440 506 35,000  Level Gander Center
Mon 11:27:00 AM 58.9811 -57.8770 229° Southwest 431 496 35,000  Level FlightAware Transoceanic
Mon 11:27:26 AM 58.9667 -57.9167 232° Southwest 440 506 35,000  Level Gander Center
Mon 11:28:00 AM 58.9020 -58.0513 229° Southwest 431 496 35,000  Level FlightAware Transoceanic
Mon 11:28:26 AM 58.8667 -58.1000 224° Southwest 440 506 35,000  Level Gander Center
Mon 11:29:00 AM 58.8226 -58.2248 228° Southwest 431 496 35,000  Level FlightAware Transoceanic
Mon 11:29:26 AM 58.7833 -58.3000 231° Southwest 440 506 35,000  Level Gander Center
Mon 11:30:26 AM 58.7000 -58.4667 226° Southwest 440 506 35,000  Level Gander Center
Mon 11:31:26 AM 58.6167 -58.5667 212° Southwest 430 495 35,000  Level Gander Center
Mon 11:32:26 AM 58.5167 -58.7000 215° Southwest 430 495 35,000  Level Gander Center
Mon 11:33:26 AM 58.4000 -58.8000 204° Southwest 430 495 35,000  Level Gander Center
Mon 11:34:26 AM 58.3000 -58.9000 208° Southwest 430 495 35,000  Level Gander Center
Mon 11:35:26 AM 58.1833 -59.0333 211° Southwest 430 495 35,000  Level Gander Center
Mon 11:36:26 AM 58.0833 -59.1333 208° Southwest 430 495 35,000  Level Gander Center
Mon 11:37:26 AM 57.9667 -59.2333 204° Southwest 430 495 35,000  Level Gander Center
Mon 11:38:26 AM 57.8667 -59.3667 215° Southwest 430 495 35,000  Level Gander Center
Mon 11:39:26 AM 57.7500 -59.4667 205° Southwest 430 495 35,000  Level Gander Center
Mon 11:40:26 AM 57.6667 -59.6000 221° Southwest 430 495 35,000  Level Gander Center
Mon 11:41:26 AM 57.5667 -59.7000 208° Southwest 440 506 35,000  Level Gander Center
Mon 11:42:26 AM 57.4500 -59.8000 205° Southwest 440 506 35,000  Level Gander Center
Mon 11:43:26 AM 57.3500 -59.9167 212° Southwest 430 495 35,000  Level Gander Center
Mon 11:44:26 AM 57.2333 -60.0167 205° Southwest 430 495 35,000  Level Gander Center
Mon 11:45:26 AM 57.1333 -60.1500 216° Southwest 440 506 35,000  Level Gander Center
Mon 11:46:26 AM 57.0167 -60.2333 201° Southwest 430 495 35,000  Level Gander Center
Mon 11:47:26 AM 56.9167 -60.3333 209° Southwest 440 506 35,000  Level Gander Center
Mon 11:48:26 AM 56.8000 -60.4667 212° Southwest 430 495 35,000  Level Gander Center
Mon 11:49:26 AM 56.7000 -60.5500 205° Southwest 410 472 35,000  Level Gander Center
Mon 11:50:26 AM 56.6000 -60.6500 209° Southwest 440 506 35,000  Level Gander Center
Mon 11:51:26 AM 56.5000 -60.7667 213° Southwest 430 495 35,000  Level Gander Center
Mon 11:52:26 AM 56.3833 -60.8667 205° Southwest 430 495 35,000  Level Gander Center
Mon 11:53:26 AM 56.2833 -60.9500 205° Southwest 430 495 35,000  Level Gander Center
Mon 11:54:26 AM 56.1667 -61.0667 209° Southwest 430 495 35,000  Level Gander Center
Mon 11:55:26 AM 56.0667 -61.1667 209° Southwest 430 495 35,000  Level Gander Center
Mon 11:56:26 AM 55.9667 -61.2500 205° Southwest 430 495 35,000  Level Gander Center
Mon 11:57:26 AM 55.8500 -61.3667 209° Southwest 430 495 35,000  Level Gander Center
Mon 11:58:26 AM 55.7500 -61.4667 209° Southwest 430 495 35,000  Level Gander Center
Mon 11:59:26 AM 55.6333 -61.5833 209° Southwest 430 495 35,000  Level Gander Center
Mon 12:00:26 PM 55.5333 -61.6667 205° Southwest 430 495 35,000  Level Gander Center
Mon 12:01:26 PM 55.4333 -61.7500 205° Southwest 430 495 35,000  Level Gander Center
Mon 12:02:26 PM 55.3167 -61.8333 202° Southwest 430 495 35,000  Level Gander Center
Mon 12:03:26 PM 55.2167 -61.9500 214° Southwest 430 495 35,000  Level Gander Center
Mon 12:04:26 PM 55.1000 -62.0333 202° Southwest 430 495 35,000  Level Gander Center
Mon 12:05:26 PM 55.0000 -62.1333 210° Southwest 430 495 35,000  Level Gander Center
Mon 12:06:26 PM 54.9000 -62.2333 210° Southwest 430 495 35,000  Level Gander Center
Mon 12:07:26 PM 54.7833 -62.3333 206° Southwest 430 495 35,000  Level Gander Center
Mon 12:08:26 PM 54.6833 -62.4167 206° Southwest 430 495 35,000  Level Gander Center
Mon 12:09:26 PM 54.5833 -62.5167 210° Southwest 430 495 35,000  Level Gander Center
Mon 12:10:26 PM 54.4833 -62.6000 206° Southwest 430 495 35,000  Level Gander Center
Mon 12:11:26 PM 54.3500 -62.6833 200° South 430 495 35,000  Level Gander Center
Mon 12:12:26 PM 54.2500 -62.8000 214° Southwest 430 495 35,000 500 Level Gander Center
Mon 12:13:26 PM 54.1333 -62.8833 203° Southwest 440 506 36,000 500 Climbing Gander Center
Mon 12:14:26 PM 54.0333 -62.9667 206° Southwest 440 506 36,000  Level Gander Center
Mon 12:15:26 PM 53.9167 -63.0667 207° Southwest 430 495 36,000  Level Gander Center
Mon 12:16:26 PM 53.8167 -63.1500 206° Southwest 440 506 36,000  Level Gander Center
Mon 12:17:26 PM 53.7167 -63.2333 206° Southwest 430 495 36,000  Level Gander Center
Mon 12:18:26 PM 53.6000 -63.3333 207° Southwest 440 506 36,000  Level Gander Center
Mon 12:19:26 PM 53.4833 -63.4167 203° Southwest 430 495 36,000  Level Gander Center
Mon 12:20:26 PM 53.3667 -63.5167 207° Southwest 440 506 36,000  Level Gander Center
Mon 12:21:26 PM 53.2500 -63.6000 203° Southwest 440 506 36,000  Level Gander Center
Mon 12:22:26 PM 53.1500 -63.7000 211° Southwest 450 518 36,000  Level Gander Center
Mon 12:23:26 PM 53.0333 -63.7833 203° Southwest 450 518 36,000  Level Gander Center
Mon 12:24:26 PM 52.9333 -63.8667 207° Southwest 450 518 36,000  Level Gander Center
Mon 12:25:26 PM 52.8167 -63.9667 207° Southwest 450 518 36,000  Level Gander Center
Mon 12:26:26 PM 52.7000 -64.0333 199° South 450 518 36,000  Level Gander Center
Mon 12:27:26 PM 52.6000 -64.1500 215° Southwest 450 518 36,000  Level Gander Center
Mon 12:28:26 PM 52.4667 -64.2167 197° South 450 518 36,000  Level Gander Center
Mon 12:29:26 PM 52.3500 -64.3167 208° Southwest 440 506 36,000  Level Gander Center
Mon 12:30:18 PM 52.2667 -64.4000 211° Southwest 440 506 36,000  Level Moncton Center
Mon 12:31:18 PM 52.1500 -64.4833 204° Southwest 450 518 36,000  Level Moncton Center
Mon 12:32:18 PM 52.0333 -64.5667 204° Southwest 440 506 36,000  Level Moncton Center
Mon 12:33:18 PM 51.9333 -64.6333 202° Southwest 450 518 36,000  Level Moncton Center
Mon 12:34:18 PM 51.8167 -64.7167 204° Southwest 450 518 36,000  Level Moncton Center
Mon 12:35:18 PM 51.7000 -64.8333 212° Southwest 450 518 36,000  Level Moncton Center
Mon 12:36:18 PM 51.5833 -64.9167 204° Southwest 450 518 36,000  Level Moncton Center
Mon 12:37:18 PM 51.4667 -64.9833 200° South 450 518 36,000  Level Moncton Center
Mon 12:38:18 PM 51.3667 -65.0667 207° Southwest 450 518 36,000  Level Moncton Center
Mon 12:39:18 PM 51.2333 -65.1500 201° Southwest 460 529 36,000  Level Moncton Center
Mon 12:40:18 PM 51.1333 -65.2167 203° Southwest 460 529 36,000  Level Moncton Center
Mon 12:41:18 PM 51.0167 -65.3333 212° Southwest 460 529 36,000  Level Moncton Center
Mon 12:42:18 PM 50.9000 -65.4000 200° South 460 529 36,000  Level Moncton Center
Mon 12:43:18 PM 50.7667 -65.4833 202° Southwest 460 529 36,000  Level Moncton Center
Mon 12:44:18 PM 50.6500 -65.5667 204° Southwest 460 529 36,000  Level Moncton Center
Mon 12:45:18 PM 50.5333 -65.6667 209° Southwest 460 529 36,000  Level Moncton Center
Mon 12:46:18 PM 50.4167 -65.7333 200° South 460 529 36,000  Level Moncton Center
Mon 12:47:18 PM 50.3000 -65.8167 205° Southwest 460 529 36,000  Level Moncton Center
Mon 12:48:18 PM 50.1833 -65.8833 200° South 460 529 36,000  Level Moncton Center
Mon 12:49:18 PM 50.0667 -65.9833 209° Southwest 460 529 36,000  Level Moncton Center
Mon 12:50:18 PM 49.9500 -66.0667 205° Southwest 460 529 36,000  Level Moncton Center
Mon 12:51:18 PM 49.8333 -66.1333 200° South 460 529 36,000  Level Moncton Center
Mon 12:52:18 PM 49.7333 -66.2167 208° Southwest 460 529 36,000  Level Moncton Center
Mon 12:53:18 PM 49.6167 -66.2833 200° South 460 529 36,000  Level Moncton Center
Mon 12:54:18 PM 49.4667 -66.3833 203° Southwest 460 529 36,000  Level Moncton Center
Mon 12:55:18 PM 49.3667 -66.4500 203° Southwest 460 529 36,000  Level Moncton Center
Mon 12:56:18 PM 49.2333 -66.5333 202° Southwest 460 529 36,000  Level Moncton Center
Mon 12:57:18 PM 49.1333 -66.6000 204° Southwest 460 529 36,000  Level Moncton Center
Mon 12:58:18 PM 49.0167 -66.7000 209° Southwest 460 529 36,000  Level Moncton Center
Mon 12:59:18 PM 48.9000 -66.7667 201° Southwest 470 541 36,000  Level Moncton Center
Mon 01:00:18 PM 48.7833 -66.8333 201° Southwest 470 541 36,000  Level Moncton Center
Mon 01:01:18 PM 48.6500 -66.9333 206° Southwest 470 541 36,000  Level Moncton Center
Mon 01:02:18 PM 48.5167 -67.0000 198° South 470 541 36,000  Level Moncton Center
Mon 01:03:18 PM 48.4000 -67.0667 201° Southwest 470 541 36,000  Level Moncton Center
Mon 01:04:18 PM 48.2833 -67.1333 201° Southwest 470 541 36,000  Level Moncton Center
Mon 01:05:18 PM 48.1667 -67.2333 210° Southwest 470 541 36,000  Level Moncton Center
Mon 01:06:18 PM 48.0500 -67.3000 201° Southwest 470 541 36,000  Level Moncton Center
Mon 01:12:10 PM 47.3735 -67.8385 201° Southwest 474 545 36,000  Level FlightAware ADS-B
Mon 01:13:00 PM 47.2778 -67.9208 210° Southwest 473 544 36,000  Level FlightAware ADS-B
Mon 01:13:38 PM 47.2104 -67.9783 210° Southwest 475 547 36,000  Level FlightAware ADS-B
Mon 01:14:20 PM 47.1279 -68.0488 210° Southwest 476 548 36,000  Level FlightAware ADS-B
Mon 01:14:51 PM 47.0672 -68.1003 210° Southwest 477 549 36,000  Level FlightAware ADS-B
Mon 01:15:21 PM 47.0199 -68.1404 210° Southwest 479 551 36,000  Level FlightAware ADS-B
Mon 01:16:01 PM 46.9375 -68.2102 210° Southwest 478 550 36,000  Level FlightAware ADS-B
Mon 01:16:32 PM 46.8753 -68.2626 210° Southwest 476 548 36,000  Level FlightAware ADS-B
Mon 01:17:12 PM 46.7992 -68.3265 210° Southwest 476 548 36,000  Level FlightAware ADS-B
Mon 01:17:51 PM 46.7255 -68.3883 210° Southwest 478 550 36,000  Level FlightAware ADS-B
Mon 01:18:21 PM 46.6739 -68.4314 210° Southwest 480 552 36,000  Level FlightAware ADS-B
Mon 01:19:02 PM 46.5873 -68.5034 210° Southwest 478 550 36,000  Level FlightAware ADS-B
Mon 01:19:43 PM 46.5094 -68.5679 210° Southwest 476 548 36,000  Level FlightAware ADS-B
Mon 01:20:13 PM 46.4525 -68.6149 210° Southwest 475 547 36,000  Level FlightAware ADS-B
Mon 01:20:52 PM 46.3779 -68.6764 210° Southwest 478 550 36,000  Level FlightAware ADS-B
Mon 01:21:23 PM 46.3179 -68.7258 210° Southwest 475 547 36,000  Level FlightAware ADS-B
Mon 01:22:02 PM 46.2455 -68.7852 210° Southwest 477 549 36,000  Level FlightAware ADS-B
Mon 01:22:32 PM 46.1865 -68.8336 210° Southwest 479 551 36,000  Level FlightAware ADS-B
Mon 01:23:03 PM 46.1269 -68.8821 209° Southwest 478 550 36,000  Level FlightAware ADS-B
Mon 01:23:34 PM 46.0684 -68.9297 209° Southwest 478 550 36,000  Level FlightAware ADS-B
Mon 01:24:04 PM 46.0088 -68.9780 209° Southwest 479 551 36,000  Level FlightAware ADS-B
Mon 01:24:35 PM 45.9506 -69.0252 209° Southwest 483 556 36,000  Level FlightAware ADS-B
Mon 01:25:15 PM 45.8721 -69.0885 209° Southwest 484 557 36,000  Level FlightAware ADS-B
Mon 01:25:55 PM 45.7935 -69.1518 209° Southwest 483 556 36,000  Level FlightAware ADS-B
Mon 01:26:25 PM 45.7435 -69.1918 209° Southwest 477 549 36,000  Level FlightAware ADS-B
Mon 01:27:04 PM 45.6618 -69.2571 209° Southwest 475 547 36,000  Level FlightAware ADS-B
Mon 01:27:42 PM 45.5892 -69.3151 209° Southwest 475 547 36,000  Level FlightAware ADS-B (EHTW / ENS)
Mon 01:28:15 PM 45.5251 -69.3662 209° Southwest 477 549 36,000  Level FlightAware ADS-B
Mon 01:28:45 PM 45.4666 -69.4126 209° Southwest 479 551 36,000  Level FlightAware ADS-B
Mon 01:29:16 PM 45.4075 -69.4594 209° Southwest 479 551 36,000  Level FlightAware ADS-B
Mon 01:29:46 PM 45.3490 -69.5056 209° Southwest 478 550 36,000  Level FlightAware ADS-B
Mon 01:30:23 PM 45.2839 -69.5567 209° Southwest 478 550 36,000  Level FlightAware ADS-B
Mon 01:30:56 PM 45.2140 -69.6117 209° Southwest 481 554 36,000  Level FlightAware ADS-B
Mon 01:31:31 PM 45.1775 -69.6402 209° Southwest 483 556 36,000  Level FlightAware ADS-B
Mon 01:32:06 PM 45.0769 -69.7189 209° Southwest 480 552 36,000  Level FlightAware ADS-B
Mon 01:32:43 PM 45.0266 -69.7581 209° Southwest 478 550 36,000  Level FlightAware ADS-B
Mon 01:33:13 PM 44.9845 -69.7908 209° Southwest 476 548 36,000  Level FlightAware ADS-B (EHTW / ENS)
Mon 01:33:43 PM 44.8989 -69.8574 209° Southwest 479 551 36,000  Level FlightAware ADS-B
Mon 01:34:16 PM 44.8268 -69.9130 209° Southwest 475 547 36,000  Level FlightAware ADS-B
Mon 01:34:47 PM 44.7671 -69.9591 209° Southwest 473 544 36,000  Level FlightAware ADS-B
Mon 01:35:17 PM 44.7095 -70.0034 209° Southwest 472 543 36,000  Level FlightAware ADS-B
Mon 01:35:47 PM 44.6517 -70.0478 209° Southwest 475 547 36,000  Level FlightAware ADS-B
Mon 01:36:23 PM 44.5829 -70.1006 209° Southwest 478 550 36,000  Level FlightAware ADS-B
Mon 01:37:03 PM 44.5547 -70.1221 209° Southwest 472 543 36,000  Level FlightAware ADS-B
Mon 01:37:33 PM 44.4692 -70.1871 208° Southwest 470 541 36,000  Level FlightAware ADS-B
Mon 01:38:13 PM 44.3734 -70.2601 209° Southwest 477 549 36,000  Level FlightAware ADS-B
Mon 01:38:43 PM 44.3161 -70.3036 209° Southwest 476 548 36,000  Level FlightAware ADS-B
Mon 01:39:19 PM 44.2516 -70.3522 208° Southwest 477 549 36,000  Level FlightAware ADS-B
Mon 01:39:49 PM 44.1845 -70.4028 208° Southwest 480 552 36,000  Level FlightAware ADS-B
Mon 01:40:19 PM 44.1315 -70.4426 208° Southwest 477 549 36,000  Level FlightAware ADS-B
Mon 01:40:36 PM 44.1001 -70.4662 208° Southwest 478 550 36,000  Level FlightAware ADS-B
Mon 01:41:23 PM 44.0072 -70.5357 208° Southwest 476 548 36,000  Level FlightAware ADS-B
Mon 01:41:56 PM 43.9380 -70.5875 208° Southwest 474 545 36,000  Level FlightAware ADS-B
Mon 01:42:30 PM 43.8719 -70.6368 208° Southwest 487 560 36,000  Level FlightAware ADS-B
Mon 01:43:02 PM 43.8071 -70.6848 208° Southwest 488 562 36,000  Level FlightAware ADS-B
Mon 01:43:28 PM 43.7554 -70.7231 208° Southwest 479 551 36,000  Level FlightAware ADS-B
Mon 01:43:38 PM 43.7357 -70.7376 208° Southwest 476 548 36,000  Level FlightAware ADS-B
Mon 01:43:48 PM 43.7168 -70.7516 208° Southwest 475 547 36,000  Level FlightAware ADS-B
Mon 01:43:57 PM 43.6989 -70.7648 208° Southwest 474 545 36,000  Level FlightAware ADS-B
Mon 01:44:06 PM 43.6813 -70.7779 208° Southwest 474 545 36,000  Level FlightAware ADS-B
Mon 01:44:19 PM 43.6550 -70.7970 208° Southwest 484 557 36,000  Level FlightAware ADS-B
Mon 01:44:38 PM 43.6183 -70.8244 208° Southwest 479 551 36,000  Level FlightAware ADS-B
Mon 01:44:52 PM 43.5970 -70.8400 208° Southwest 489 563 36,000  Level FlightAware ADS-B
Mon 01:45:08 PM 43.5589 -70.8683 208° Southwest 490 564 36,000  Level FlightAware ADS-B
Mon 01:45:38 PM 43.5002 -70.9111 208° Southwest 476 548 36,000  Level FlightAware ADS-B
Mon 01:46:04 PM 43.4500 -70.9480 208° Southwest 486 559 36,000  Level FlightAware ADS-B
Mon 01:46:08 PM 43.4412 -70.9543 207° Southwest 477 549 36,000  Level FlightAware ADS-B
Mon 01:46:35 PM 43.3860 -70.9950 208° Southwest 480 552 36,000  Level FlightAware ADS-B
Mon 01:46:45 PM 43.3701 -71.0064 207° Southwest 480 552 36,000  Level FlightAware ADS-B
Mon 01:47:18 PM 43.3022 -71.0559 208° Southwest 477 549 36,000  Level FlightAware ADS-B
Mon 01:47:53 PM 43.2335 -71.1060 208° Southwest 474 545 36,000  Level FlightAware ADS-B
Mon 01:48:28 PM 43.1684 -71.1529 208° Southwest 470 541 36,000  Level FlightAware ADS-B
Mon 01:48:58 PM 43.1105 -71.1949 208° Southwest 466 536 36,000  Level FlightAware ADS-B (SBBR / BSB)
Mon 01:49:30 PM 43.0491 -71.2391 208° Southwest 454 522 36,000  Level FlightAware ADS-B
Mon 01:50:01 PM 42.9925 -71.2799 208° Southwest 459 528 36,000  Level FlightAware ADS-B
Mon 01:50:31 PM 42.9366 -71.3201 208° Southwest 458 527 36,000  Level FlightAware ADS-B (SBBR / BSB)
Mon 01:51:06 PM 42.8717 -71.3667 208° Southwest 455 524 36,000  Level FlightAware ADS-B
Mon 01:51:41 PM 42.8041 -71.4151 208° Southwest 459 528 36,000  Level FlightAware ADS-B (SBBR / BSB)
Mon 01:52:11 PM 42.7477 -71.4555 208° Southwest 454 522 36,000  Level FlightAware ADS-B
Mon 01:52:41 PM 42.6918 -71.4952 208° Southwest 455 524 36,000  Level FlightAware ADS-B
Mon 01:53:17 PM 42.6249 -71.5428 208° Southwest 461 531 36,000  Level FlightAware ADS-B (SBBR / BSB)
Mon 01:53:47 PM 42.5680 -71.5832 208° Southwest 464 534 36,000  Level FlightAware ADS-B
Mon 01:54:19 PM 42.5056 -71.6274 208° Southwest 471 542 36,000  Level FlightAware ADS-B
Mon 01:54:59 PM 42.4287 -71.6816 208° Southwest 475 547 36,000  Level FlightAware ADS-B
Mon 01:55:33 PM 42.3616 -71.7289 207° Southwest 475 547 36,000  Level FlightAware ADS-B
Mon 01:56:03 PM 42.3052 -71.7684 207° Southwest 474 545 36,000  Level FlightAware ADS-B (SBBR / BSB)
Mon 01:56:34 PM 42.2434 -71.8118 207° Southwest 475 547 36,000  Level FlightAware ADS-B
Mon 01:56:52 PM 42.2086 -71.8360 207° Southwest 475 547 36,000  Level FlightAware ADS-B
Mon 01:57:27 PM 42.1494 -71.8774 207° Southwest 472 543 36,000  Level FlightAware ADS-B (KSNC)
Mon 01:58:05 PM 42.0700 -71.9327 207° Southwest 473 544 36,000  Level FlightAware ADS-B (SBBR / BSB)
Mon 01:58:35 PM 42.0079 -71.9760 207° Southwest 474 545 36,000  Level FlightAware ADS-B
Mon 01:59:05 PM 41.9512 -72.0152 207° Southwest 475 547 36,000  Level FlightAware ADS-B (SBBR / BSB)
Mon 01:59:36 PM 41.8897 -72.0578 207° Southwest 475 547 36,000  Level FlightAware ADS-B
Mon 02:00:06 PM 41.8315 -72.0979 207° Southwest 474 545 36,000  Level FlightAware ADS-B (ESTA / AGH)
Mon 02:00:39 PM 41.7667 -72.1426 207° Southwest 474 545 36,000  Level FlightAware ADS-B (KSNC)
Mon 02:01:09 PM 41.7081 -72.1829 207° Southwest 474 545 36,000  Level FlightAware ADS-B (KSNC)
Mon 02:01:53 PM 41.6280 -72.2378 207° Southwest 473 544 36,000  Level FlightAware ADS-B (KSNC)
Mon 02:02:23 PM 41.5653 -72.2807 207° Southwest 473 544 36,000  Level FlightAware ADS-B (KSNC)
Mon 02:02:56 PM 41.4992 -72.3259 207° Southwest 474 545 36,000  Level FlightAware ADS-B (SBBR / BSB)
Mon 02:03:27 PM 41.4413 -72.3653 207° Southwest 474 545 36,000  Level FlightAware ADS-B (SBBR / BSB)
Mon 02:04:05 PM 41.3656 -72.4168 207° Southwest 474 545 36,000  Level FlightAware ADS-B (KSNC)
Mon 02:04:35 PM 41.3072 -72.4563 207° Southwest 475 547 36,000  Level FlightAware ADS-B (SBBR / BSB)
Mon 02:05:11 PM 41.2364 -72.5041 207° Southwest 473 544 36,000  Level FlightAware ADS-B (SBBR / BSB)
Mon 02:05:50 PM 41.1680 -72.5503 207° Southwest 471 542 36,000  Level FlightAware ADS-B (KSNC)
Mon 02:06:22 PM 41.1055 -72.5924 207° Southwest 471 542 36,000  Level FlightAware ADS-B (SBBR / BSB)
Mon 02:06:57 PM 41.0413 -72.6355 207° Southwest 470 541 36,000  Level FlightAware ADS-B (KSNC)
Mon 02:07:27 PM 40.9724 -72.6817 207° Southwest 469 540 36,000  Level FlightAware ADS-B (KSNC)
Mon 02:08:07 PM 40.8944 -72.7339 207° Southwest 470 541 36,000  Level FlightAware ADS-B (KSNC)
Mon 02:08:37 PM 40.8380 -72.7724 207° Southwest 465 535 36,000  Level FlightAware ADS-B (KSNC)
Mon 02:09:08 PM 40.7851 -72.8231 216° Southwest 456 525 36,000  Level FlightAware ADS-B (KSNC)
Mon 02:09:38 PM 40.7357 -72.8737 218° Southwest 456 525 36,000  Level FlightAware ADS-B (KSNC)
Mon 02:10:13 PM 40.6770 -72.9334 218° Southwest 453 521 36,000  Level FlightAware ADS-B (KSNC)
Mon 02:10:43 PM 40.6317 -72.9793 218° Southwest 452 520 36,000  Level FlightAware ADS-B (KSNC)
Mon 02:11:21 PM 40.5674 -73.0443 218° Southwest 452 520 36,000  Level FlightAware ADS-B (KWWD)
Mon 02:11:55 PM 40.5187 -73.0935 217° Southwest 452 520 36,000  Level FlightAware ADS-B (KSNC)
Mon 02:12:33 PM 40.4449 -73.1677 217° Southwest 450 518 36,000  Level FlightAware ADS-B (KWWD)
Mon 02:13:07 PM 40.3880 -73.2248 217° Southwest 450 518 36,000  Level FlightAware ADS-B (KSNC)
Mon 02:13:37 PM 40.3532 -73.2598 217° Southwest 450 518 36,000  Level FlightAware ADS-B (KSNC)
Mon 02:13:58 PM 40.3047 -73.3085 217° Southwest 449 517 36,000  Level FlightAware ADS-B
Mon 02:14:46 PM 40.2250 -73.3881 217° Southwest 447 514 36,000  Level FlightAware ADS-B (KSNC)
Mon 02:15:23 PM 40.1642 -73.4486 217° Southwest 445 512 36,000  Level FlightAware ADS-B (KSNC)
Mon 02:15:54 PM 40.1161 -73.4964 217° Southwest 445 512 36,000  Level FlightAware ADS-B (KSNC)
Mon 02:16:24 PM 40.0633 -73.5487 217° Southwest 445 512 36,000  Level FlightAware ADS-B (KWWD)
Mon 02:16:55 PM 40.0133 -73.5981 217° Southwest 445 512 36,000  Level FlightAware ADS-B (KWWD)
Mon 02:17:27 PM 39.9659 -73.6448 217° Southwest 442 509 36,000  Level FlightAware ADS-B
Mon 02:17:58 PM 39.9117 -73.6984 217° Southwest 439 505 36,000  Level FlightAware ADS-B (KSNC)
Mon 02:18:23 PM 39.8717 -73.7377 217° Southwest 436 502 36,000  Level FlightAware ADS-B
Mon 02:18:45 PM 39.8364 -73.7724 217° Southwest 436 502 36,000  Level FlightAware ADS-B
Mon 02:19:20 PM 39.7787 -73.8289 217° Southwest 437 503 36,000  Level FlightAware ADS-B (KSNC)
Mon 02:19:31 PM 39.7598 -73.8474 217° Southwest 431 496 36,000  Level FlightAware ADS-B (KWWD)
Mon 02:19:41 PM 39.7443 -73.8627 217° Southwest 431 496 36,000  Level FlightAware ADS-B (KWWD)
Mon 02:19:46 PM 39.7402 -73.8667 217° Southwest 438 504 36,000  Level FlightAware ADS-B (KSNC)
Mon 02:20:21 PM 39.6801 -73.9253 217° Southwest 440 506 36,000  Level FlightAware ADS-B (KWWD)
Mon 02:20:56 PM 39.6236 -73.9805 217° Southwest 441 507 36,000  Level FlightAware ADS-B (KSNC)
Mon 02:21:28 PM 39.5731 -74.0296 217° Southwest 438 504 36,000  Level FlightAware ADS-B
Mon 02:21:46 PM 39.5447 -74.0572 217° Southwest 438 504 36,000  Level FlightAware ADS-B
Mon 02:22:16 PM 39.4930 -74.1074 217° Southwest 430 495 36,000  Level FlightAware ADS-B (KWWD)
Mon 02:22:55 PM 39.4301 -74.1683 217° Southwest 429 494 36,000  Level FlightAware ADS-B (KWWD)
Mon 02:23:26 PM 39.3807 -74.2160 217° Southwest 427 491 36,000  Level FlightAware ADS-B (KWWD)
Mon 02:24:03 PM 39.3217 -74.2728 217° Southwest 424 488 36,000  Level FlightAware ADS-B (KWWD)
Mon 02:24:36 PM 39.2691 -74.3234 217° Southwest 423 487 36,000  Level FlightAware ADS-B (KWWD)
Mon 02:25:14 PM 39.2071 -74.3760 213° Southwest 434 499 36,000  Level FlightAware ADS-B (KWWD)
Mon 02:25:24 PM 39.2007 -74.3811 212° Southwest 435 501 36,000  Level FlightAware ADS-B
Mon 02:25:54 PM 39.1369 -74.4317 212° Southwest 433 498 36,000  Level FlightAware ADS-B (KWWD)
Mon 02:26:16 PM 39.1023 -74.4597 212° Southwest 432 497 36,000  Level FlightAware ADS-B
Mon 02:26:46 PM 39.0498 -74.5022 212° Southwest 423 487 36,000  Level FlightAware ADS-B (KWWD)
Mon 02:27:23 PM 38.9908 -74.5502 212° Southwest 428 493 36,000  Level FlightAware ADS-B
Mon 02:28:01 PM 38.9246 -74.6039 212° Southwest 423 487 36,000  Level FlightAware ADS-B (KWWD)
Mon 02:28:32 PM 38.8935 -74.6292 212° Southwest 431 496 36,000  Level FlightAware ADS-B (EGAA / BFS)
Mon 02:28:51 PM 38.8400 -74.6727 212° Southwest 424 488 36,000  Level FlightAware ADS-B (KWWD)
Mon 02:29:42 PM 38.7547 -74.7418 212° Southwest 432 497 36,000  Level FlightAware ADS-B (EGAA / BFS)
Mon 02:30:23 PM 38.7157 -74.7732 212° Southwest 433 498 36,000  Level FlightAware ADS-B
Mon 02:31:03 PM 38.6171 -74.8525 212° Southwest 433 498 36,000  Level FlightAware ADS-B (EGAA / BFS)
Mon 02:31:15 PM 38.5959 -74.8695 212° Southwest 426 490 36,000  Level FlightAware ADS-B (KWWD)
Mon 02:31:19 PM 38.5894 -74.8747 212° Southwest 426 490 36,000  Level FlightAware ADS-B (KWWD)
Mon 02:32:01 PM 38.5194 -74.9308 212° Southwest 431 496 36,000  Level FlightAware ADS-B (EGAA / BFS)
Mon 02:32:33 PM 38.4712 -74.9693 212° Southwest 431 496 36,000  Level FlightAware ADS-B (EGAA / BFS)
Mon 02:32:50 PM 38.4355 -74.9979 212° Southwest 424 488 36,000  Level FlightAware ADS-B (KWWD)
Mon 02:33:10 PM 38.4020 -75.0246 212° Southwest 426 490 36,000  Level FlightAware ADS-B (KWWD)
Mon 02:33:44 PM 38.3459 -75.0693 212° Southwest 433 498 36,000  Level FlightAware ADS-B (EGAA / BFS)
Mon 02:34:14 PM 38.2932 -75.1113 212° Southwest 435 501 36,000  Level FlightAware ADS-B (KWWD)
Mon 02:34:51 PM 38.2344 -75.1580 212° Southwest 433 498 36,000  Level FlightAware ADS-B (EGAA / BFS)
Mon 02:35:11 PM 38.1960 -75.1884 212° Southwest 425 489 36,000  Level FlightAware ADS-B (KWWD)
Mon 02:35:42 PM 38.1459 -75.2280 212° Southwest 430 495 36,000  Level FlightAware ADS-B (EGAA / BFS)
Mon 02:35:51 PM 38.1283 -75.2420 212° Southwest 422 486 36,000  Level FlightAware ADS-B (KWWD)
Mon 02:36:14 PM 38.0896 -75.2726 212° Southwest 421 484 36,000  Level FlightAware ADS-B (KWWD)
Mon 02:36:47 PM 38.0360 -75.3149 212° Southwest 419 482 36,000  Level FlightAware ADS-B (KWWD)
Mon 02:37:24 PM 37.9741 -75.3637 212° Southwest 424 488 36,000  Level FlightAware ADS-B (EGAA / BFS)
Mon 02:37:56 PM 37.9198 -75.4064 212° Southwest 422 486 36,000  Level FlightAware ADS-B (KWWD)
Mon 02:38:33 PM 37.8595 -75.4538 212° Southwest 420 483 36,000  Level FlightAware ADS-B (EGAA / BFS)
Mon 02:39:07 PM 37.8031 -75.4979 212° Southwest 420 483 36,000  Level FlightAware ADS-B (KWWD)
Mon 02:39:44 PM 37.7432 -75.5447 212° Southwest 420 483 36,000  Level FlightAware ADS-B (EGAA / BFS)
Mon 02:40:14 PM 37.6918 -75.5846 212° Southwest 419 482 36,000  Level FlightAware ADS-B (KWWD)
Mon 02:40:44 PM 37.6446 -75.6215 212° Southwest 417 480 36,000  Level FlightAware ADS-B (EGAA / BFS)
Mon 02:41:17 PM 37.5883 -75.6652 212° Southwest 415 478 36,000  Level FlightAware ADS-B (KWWD)
Mon 02:41:53 PM 37.5309 -75.7098 212° Southwest 414 476 36,000  Level FlightAware ADS-B (KWWD)
Mon 02:42:24 PM 37.4802 -75.7492 212° Southwest 415 478 36,000  Level FlightAware ADS-B (KWWD)
Mon 02:42:56 PM 37.4272 -75.7901 212° Southwest 416 479 36,000  Level FlightAware ADS-B (KWWD)
Mon 02:43:37 PM 37.3597 -75.8422 212° Southwest 416 479 36,000  Level FlightAware ADS-B (KWWD)
Mon 02:44:17 PM 37.2951 -75.8920 212° Southwest 416 479 36,000  Level FlightAware ADS-B (KWWD)
Mon 02:44:51 PM 37.2382 -75.9357 211° Southwest 414 476 36,000  Level FlightAware ADS-B (KWWD)
Mon 02:45:28 PM 37.1805 -75.9800 211° Southwest 413 475 36,000  Level FlightAware ADS-B (KWWD)
Mon 02:46:05 PM 37.1187 -76.0274 211° Southwest 414 476 36,000  Level FlightAware ADS-B (KWWD)
Mon 02:46:44 PM 37.0552 -76.0760 211° Southwest 415 478 36,000  Level FlightAware ADS-B (KWWD)
Mon 02:47:27 PM 37.0062 -76.1134 211° Southwest 416 479 36,000  Level FlightAware ADS-B
Mon 02:47:57 PM 36.9347 -76.1679 211° Southwest 416 479 36,000  Level FlightAware ADS-B (KWWD)
Mon 02:48:27 PM 36.9172 -76.1812 211° Southwest 417 480 36,000  Level FlightAware ADS-B
Mon 02:49:07 PM 36.8257 -76.2604 215° Southwest 408 470 36,000  Level FlightAware ADS-B
Mon 02:49:41 PM 36.8257 -76.2604 215° Southwest 409 471 36,000  Level FlightAware ADS-B
Mon 02:50:20 PM 36.7149 -76.3620 216° Southwest 402 463 36,000  Level FlightAware ADS-B (KWWD)
Mon 02:51:31 PM 36.6062 -76.4607 216° Southwest 409 471 36,000  Level FlightAware ADS-B
Mon 02:52:05 PM 36.5530 -76.5087 216° Southwest 403 464 36,000  Level FlightAware ADS-B (KWWD)
Mon 02:54:07 PM 36.3669 -76.6768 216° Southwest 412 474 36,000  Level FlightAware ADS-B
Mon 02:55:03 PM 36.2967 -76.7414 216° Southwest 416 479 36,000  Level Washington Center
Mon 02:56:03 PM 36.2039 -76.8225 215° Southwest 416 479 36,000  Level Washington Center
Mon 02:57:04 PM 36.1114 -76.9058 216° Southwest 416 479 36,000  Level Washington Center
Mon 02:58:05 PM 36.0206 -76.9864 216° Southwest 416 479 36,000  Level Washington Center
Mon 02:59:03 PM 35.9278 -77.0694 216° Southwest 416 479 36,000  Level Washington Center
Mon 03:00:04 PM 35.8331 -77.1419 212° Southwest 416 479 36,000  Level Washington Center
Mon 03:01:05 PM 35.7136 -77.1858 197° South 421 484 36,000  Level Washington Center
Mon 03:02:05 PM 35.5919 -77.2294 196° South 436 502 36,000  Level Washington Center
Mon 03:03:03 PM 35.4767 -77.2703 196° South 441 507 36,000  Level Washington Center
Mon 03:04:04 PM 35.3569 -77.3136 196° South 446 513 36,000  Level Washington Center
Mon 03:05:04 PM 35.2356 -77.3569 196° South 446 513 36,000  Level Washington Center
Mon 03:06:05 PM 35.1158 -77.4000 196° South 446 513 36,000  Level Washington Center
Mon 03:07:03 PM 35.0006 -77.4406 196° South 446 513 36,000  Level Washington Center
Mon 03:08:05 PM 34.8767 -77.4883 198° South 446 513 36,000  Level Washington Center
Mon 03:09:03 PM 34.7464 -77.5358 197° South 446 513 36,000  Level Washington Center
Mon 03:11:05 PM 34.5053 -77.6208 196° South 446 513 36,000  Level Washington Center
Mon 03:12:05 PM 34.3875 -77.6631 196° South 446 513 36,000  Level Washington Center
Mon 03:15:58 PM 33.9142 -77.8253 196° South 450 518 36,000  Level Jacksonville Center
Mon 03:16:58 PM 33.7947 -77.8647 195° South 439 505 36,000  Level Jacksonville Center
Mon 03:17:58 PM 33.6753 -77.9089 197° South 433 498 36,000  Level Jacksonville Center
Mon 03:18:59 PM 33.5539 -77.9506 196° South 438 504 36,000  Level Jacksonville Center
Mon 03:19:58 PM 33.4386 -77.9919 197° South 444 511 36,000  Level Jacksonville Center
Mon 03:20:58 PM 33.3192 -78.0308 195° South 444 511 36,000  Level Jacksonville Center
Mon 03:21:59 PM 33.1997 -78.0744 197° South 449 517 36,000  Level Jacksonville Center
Mon 03:22:58 PM 33.0803 -78.1156 196° South 449 517 36,000  Level Jacksonville Center
Mon 03:23:58 PM 32.9608 -78.1542 195° South 449 517 36,000  Level Jacksonville Center
Mon 03:24:58 PM 32.8411 -78.1950 196° South 449 517 36,000  Level Jacksonville Center
Mon 03:25:58 PM 32.7217 -78.2358 196° South 449 517 36,000  Level Jacksonville Center
Mon 03:26:58 PM 32.6042 -78.2739 195° South 449 517 36,000  Level Jacksonville Center
Mon 03:27:58 PM 32.4844 -78.3144 196° South 449 517 36,000  Level Jacksonville Center
Mon 03:28:58 PM 32.3669 -78.3550 196° South 449 517 36,000  Level Jacksonville Center
Mon 03:29:58 PM 32.2578 -78.3922 196° South 454 522 36,000  Level Jacksonville Center
Mon 03:30:59 PM 32.1403 -78.4325 196° South 454 522 36,000  Level Jacksonville Center
Mon 03:31:59 PM 32.0206 -78.4750 197° South 449 517 36,000  Level Jacksonville Center
Mon 03:32:59 PM 31.9031 -78.5125 195° South 449 517 36,000  Level Jacksonville Center
Mon 03:33:59 PM 31.7831 -78.5497 195° South 449 517 36,000  Level Jacksonville Center
Mon 03:34:58 PM 31.6614 -78.5944 197° South 454 522 36,000  Level Jacksonville Center
Mon 03:35:58 PM 31.5417 -78.6342 196° South 449 517 36,000  Level Jacksonville Center
Mon 03:36:58 PM 31.4200 -78.6714 195° South 449 517 36,000  Level Jacksonville Center
Mon 03:37:58 PM 31.3000 -78.7108 196° South 454 522 36,000  Level Jacksonville Center
Mon 03:38:58 PM 31.1761 -78.7528 196° South 454 522 36,000  Level Jacksonville Center
Mon 03:39:59 PM 31.0564 -78.7894 195° South 449 517 36,000  Level Jacksonville Center
Mon 03:40:58 PM 30.9325 -78.8314 196° South 449 517 36,000  Level Jacksonville Center
Mon 03:41:58 PM 30.8106 -78.8703 195° South 456 525 36,000  Level Jacksonville Center
Mon 03:43:27 PM 30.6236 -78.9328 196° South 436 502 36,000  Level Miami Center
Mon 03:44:27 PM 30.5003 -78.9714 195° South 449 517 36,000  Level Miami Center
Mon 03:45:27 PM 30.3806 -79.0217 200° South 456 525 36,000  Level Miami Center
Mon 03:46:27 PM 30.2611 -79.0675 198° South 462 532 36,000  Level Miami Center
Mon 03:47:27 PM 30.1417 -79.1153 199° South 461 531 36,000  Level Miami Center
Mon 03:48:27 PM 30.0219 -79.1606 198° South 461 531 36,000  Level Miami Center
Mon 03:49:27 PM 29.9108 -79.2108 201° Southwest 474 545 36,000  Level Miami Center
Mon 03:50:27 PM 29.7889 -79.2561 198° South 467 537 36,000  Level Miami Center
Mon 03:51:27 PM 29.6653 -79.2986 197° South 467 537 36,000 -50 Level Miami Center
Mon 03:52:27 PM 29.5475 -79.3486 200° South 467 537 35,900  Descending Miami Center
Mon 03:53:27 PM 29.4300 -79.3889 197° South 456 525 36,000  Climbing Miami Center
Mon 03:54:27 PM 29.3189 -79.4339 199° South 442 509 35,900  Descending Miami Center
Mon 04:00:30 PM 28.6017 -79.6955 199° South 434 499 36,000 14 Climbing FlightAware ADS-B
Mon 04:01:28 PM 28.4906 -79.7370 198° South 433 498 36,000  Level FlightAware ADS-B
Mon 04:01:58 PM 28.4350 -79.7577 198° South 432 497 36,000  Level FlightAware ADS-B
Mon 04:02:29 PM 28.3747 -79.7801 198° South 431 496 36,000  Level FlightAware ADS-B
Mon 04:02:59 PM 28.3181 -79.8011 198° South 429 494 36,000  Level FlightAware ADS-B
Mon 04:03:39 PM 28.2427 -79.8291 198° South 429 494 36,000  Level FlightAware ADS-B
Mon 04:04:27 PM 28.1507 -79.8632 198° South 430 495 36,000  Level FlightAware ADS-B
Mon 04:05:06 PM 28.0861 -79.8871 198° South 430 495 36,000  Level FlightAware ADS-B
Mon 04:05:36 PM 28.0258 -79.9094 198° South 430 495 36,000  Level FlightAware ADS-B
Mon 04:06:08 PM 27.9603 -79.9335 198° South 430 495 36,000  Level FlightAware ADS-B
Mon 04:06:48 PM 27.8856 -79.9610 198° South 429 494 36,000  Level FlightAware ADS-B
Mon 04:07:19 PM 27.8263 -79.9828 198° South 429 494 36,000  Level FlightAware ADS-B
Mon 04:07:49 PM 27.7698 -80.0036 198° South 430 495 36,000  Level FlightAware ADS-B
Mon 04:08:29 PM 27.6937 -80.0316 198° South 431 496 36,000  Level FlightAware ADS-B
Mon 04:09:08 PM 27.6198 -80.0586 198° South 432 497 36,000  Level FlightAware ADS-B
Mon 04:09:38 PM 27.5624 -80.0797 198° South 433 498 36,000  Level FlightAware ADS-B
Mon 04:10:30 PM 27.4638 -80.1157 198° South 433 498 36,000  Level FlightAware ADS-B
Mon 04:11:11 PM 27.3864 -80.1439 198° South 433 498 36,000  Level FlightAware ADS-B
Mon 04:11:44 PM 27.3219 -80.1673 198° South 432 497 36,000  Level FlightAware ADS-B
Mon 04:12:29 PM 27.2363 -80.1985 198° South 431 496 36,000  Level FlightAware ADS-B
Mon 04:13:08 PM 27.1623 -80.2254 198° South 432 497 36,000  Level FlightAware ADS-B
Mon 04:14:01 PM 27.0606 -80.2624 198° South 434 499 36,000  Level FlightAware ADS-B
Mon 04:14:52 PM 26.9621 -80.2980 198° South 435 501 36,000  Level FlightAware ADS-B
Mon 04:15:27 PM 26.9019 -80.3203 198° South 431 496 36,000  Level Miami Center
Mon 04:16:27 PM 26.7881 -80.3636 199° South 431 496 36,000  Level Miami Center
Mon 04:17:27 PM 26.6722 -80.4042 197° South 431 496 36,000  Level Miami Center
Mon 04:18:27 PM 26.5564 -80.4450 198° South 431 496 36,000  Level Miami Center
Mon 04:19:27 PM 26.4428 -80.4856 198° South 431 496 36,000  Level Miami Center
Mon 04:20:27 PM 26.3289 -80.5283 199° South 431 496 36,000  Level Miami Center
Mon 04:21:27 PM 26.2256 -80.5622 196° South 431 496 36,000  Level Miami Center
Mon 04:22:27 PM 26.1117 -80.6050 199° South 431 496 36,000  Level Miami Center
Mon 04:23:27 PM 25.9978 -80.6453 198° South 431 496 36,000  Level Miami Center
Mon 04:24:27 PM 25.8714 -80.6922 198° South 431 496 36,000  Level Miami Center
Mon 04:25:27 PM 25.7533 -80.7344 198° South 431 496 36,000  Level Miami Center
Mon 04:26:27 PM 25.6492 -80.8025 210° Southwest 429 494 36,000  Level Miami Center
Mon 04:27:27 PM 25.5653 -80.8942 225° Southwest 434 499 36,000  Level Miami Center
Mon 04:28:27 PM 25.4792 -80.9833 223° Southwest 434 499 36,000  Level Miami Center
Mon 04:29:27 PM 25.3931 -81.0769 224° Southwest 434 499 36,000  Level Miami Center
Mon 04:30:27 PM 25.3047 -81.1658 222° Southwest 434 499 36,000 -50 Level Miami Center
Mon 04:31:27 PM 25.2186 -81.2569 224° Southwest 429 494 35,900 -550 Descending Miami Center
Mon 04:32:27 PM 25.1322 -81.3456 223° Southwest 429 494 34,900 -1,000 Descending Miami Center
Mon 04:33:27 PM 25.0458 -81.4386 224° Southwest 435 501 33,900 -1,000 Descending Miami Center
Mon 04:34:27 PM 24.9594 -81.5294 224° Southwest 435 501 32,900 -900 Descending Miami Center
Mon 04:35:27 PM 24.8925 -81.6000 224° Southwest 435 501 32,100 -1,000 Descending Miami Center
Mon 04:36:27 PM 24.7931 -81.7039 223° Southwest 430 495 30,900 -1,100 Descending Miami Center
Mon 04:37:27 PM 24.7108 -81.7919 224° Southwest 425 489 29,900 -1,000 Descending Miami Center
Mon 04:38:27 PM 24.6244 -81.8775 222° Southwest 425 489 28,900 -1,000 Descending Miami Center
Mon 04:39:27 PM 24.5425 -81.9589 222° Southwest 412 474 27,900 -1,000 Descending Miami Center
Mon 04:40:27 PM 24.4664 -82.0447 226° Southwest 402 463 26,900 -1,000 Descending Miami Center
Mon 04:41:27 PM 24.3864 -82.1233 222° Southwest 397 457 25,900 -1,000 Descending Miami Center
Mon 04:42:27 PM 24.3083 -82.2044 223° Southwest 392 451 24,900 -1,000 Descending Miami Center
Mon 04:43:27 PM 24.2303 -82.2853 223° Southwest 387 445 23,900 -1,000 Descending Miami Center
Mon 04:44:27 PM 24.1522 -82.3639 223° Southwest 387 445 22,900 -950 Descending Miami Center
Mon 04:45:27 PM 24.0719 -82.4444 223° Southwest 381 438 22,000 -550 Descending Miami Center
Mon 04:46:27 PM 23.9842 -82.5019 211° Southwest 381 438 21,800 -200 Descending Miami Center
Mon 04:48:00 PM 23.7936 -82.4840 175° South  Level Estimated
Mon 04:55:00 PM 22.9891 -82.4091 180° South  Level Estimated
Mon 04:56:00 PM 22.9891 -82.4091 180° South  Level Estimated
Mon 04:57:00 PM 22.9891 -82.4091 180° South  Level Estimated
Mon 04:58:00 PM 22.9891 -82.4091 180° South  Level Estimated
Mon 04:59:00 PM 22.9891 -82.4091 180° South  Level Estimated
Mon 05:00:00 PM 22.9891 -82.4091 180° South  Level Estimated
Mon 05:01:00 PM 22.9891 -82.4091 180° South  Level Estimated
Mon 05:02:00 PM 22.9891 -82.4091 180° South  Level Estimated
Mon 05:03:00 PM 22.9891 -82.4091 180° South  Level Estimated
Mon 05:04:00 PM 22.9891 -82.4091 180° South  Level Estimated
Mon 05:05:00 PM 22.9891 -82.4091 180° South  Level Estimated
Mon 05:06:00 PM 22.9891 -82.4091 180° South  Level Estimated
Mon 05:07:00 PM 22.9891 -82.4091 180° South  Level Estimated
Mon 05:08:00 PM 22.9891 -82.4091 180° South  Level Estimated
Mon 05:09:00 PM 22.9891 -82.4091 180° South  Level Estimated
Mon 05:10:00 PM 22.9891 -82.4091 180° South  Level Estimated
Mon 05:11:00 PM 22.9891 -82.4091 180° South  Level Estimated
Mon 05:12:00 PM 22.9891 -82.4091 180° South  Level Estimated
Mon 05:13:00 PM 22.9891 -82.4091 180° South  Level Estimated
Mon 05:14:00 PM 22.9891 -82.4091 180° South  Level Estimated
Mon 05:15:00 PM 22.9891 -82.4091 180° South  Level Estimated
Mon 05:16:00 PM 22.9891 -82.4091 180° South  Level Estimated
Mon 05:17:00 PM 22.9891 -82.4091 180° South  Level Estimated

Login

Don't have an account? Register now (free) for customized features, flight alerts, and more!